Time;durP1;ratioP1;P1;durP2;ratioP2;P2;SDS_P1;SDS_P2;PMS_P1;PMS_P2;Temp;Humidity;BMP_temperature;BMP_pressure;BME280_temperature;BME280_humidity;BME280_pressure;Samples;Min_cycle;Max_cycle;Signal;HPM_P1;HPM_P2
2021/06/05 00:02:17;;;;;;;;;;;24.50;55.50;;;;;;5053050;28;19974;-58
2021/06/05 00:04:43;;;;;;;;;;;24.50;55.60;;;;;;5022050;28;19942;-53
2021/06/05 00:07:08;;;;;;;;;;;24.40;55.60;;;;;;5039508;28;19921;-55
2021/06/05 00:09:34;;;;;;;;;;;24.50;55.50;;;;;;5021354;28;19950;-58
2021/06/05 00:11:59;;;;;;;;;;;24.50;55.50;;;;;;5039257;28;19931;-58
2021/06/05 00:14:25;;;;;;;;;;;24.40;55.50;;;;;;5039210;28;20190;-57
2021/06/05 00:16:50;;;;;;;;;;;24.40;55.40;;;;;;5034720;28;19920;-57
2021/06/05 00:19:16;;;;;;;;;;;24.50;55.50;;;;;;5039049;28;19928;-59
2021/06/05 00:21:42;;;;;;;;;;;24.40;55.40;;;;;;5019431;28;19979;-57
2021/06/05 00:24:08;;;;;;;;;;;24.50;55.50;;;;;;5039199;28;19924;-54
2021/06/05 00:26:34;;;;;;;;;;;24.40;55.50;;;;;;5039608;28;19924;-57
2021/06/05 00:28:59;;;;;;;;;;;24.40;55.40;;;;;;5039093;28;19920;-59
2021/06/05 00:31:25;;;;;;;;;;;24.50;55.50;;;;;;5020715;28;20007;-59
2021/06/05 00:33:50;;;;;;;;;;;24.50;55.50;;;;;;5039425;28;19923;-60
2021/06/05 00:36:16;;;;;;;;;;;24.40;55.50;;;;;;5020350;28;20293;-57
2021/06/05 00:38:41;;;;;;;;;;;24.50;55.50;;;;;;5022023;28;20011;-59
2021/06/05 00:41:08;;;;;;;;;;;24.40;55.50;;;;;;5022254;28;19958;-55
2021/06/05 00:43:38;;;;;;;;;;;24.50;55.50;;;;;;5020494;28;19920;-59
2021/06/05 00:46:04;;;;;;;;;;;24.50;55.60;;;;;;5022530;28;19924;-55
2021/06/05 00:48:29;;;;;;;;;;;24.40;55.40;;;;;;5037752;28;19921;-57
2021/06/05 00:50:55;;;;;;;;;;;24.50;55.50;;;;;;5037158;28;19925;-56
2021/06/05 00:53:21;;;;;;;;;;;24.50;55.50;;;;;;5036279;28;20821;-59
2021/06/05 00:55:47;;;;;;;;;;;24.50;55.50;;;;;;5019131;28;19921;-59
2021/06/05 00:58:12;;;;;;;;;;;24.50;55.50;;;;;;5018493;28;19921;-58
2021/06/05 01:00:42;;;;;;;;;;;24.40;55.40;;;;;;5035877;28;19921;-59
2021/06/05 01:03:08;;;;;;;;;;;24.50;55.50;;;;;;5018597;28;19928;-59
2021/06/05 01:05:35;;;;;;;;;;;24.50;55.50;;;;;;5018037;28;19921;-58
2021/06/05 01:08:06;;;;;;;;;;;24.40;55.40;;;;;;5018745;28;19963;-59
2021/06/05 01:10:32;;;;;;;;;;;24.50;55.50;;;;;;5034792;28;20583;-57
2021/06/05 01:13:02;;;;;;;;;;;24.50;55.50;;;;;;4996029;28;19920;-60
2021/06/05 01:15:32;;;;;;;;;;;24.50;55.50;;;;;;5009947;28;19967;-58
2021/06/05 01:17:59;;;;;;;;;;;24.50;55.50;;;;;;5018047;28;19917;-59
2021/06/05 01:20:27;;;;;;;;;;;24.50;55.50;;;;;;4996765;28;19925;-59
2021/06/05 01:23:08;;;;;;;;;;;24.40;55.40;;;;;;5042695;28;19924;-58
2021/06/05 01:25:45;;;;;;;;;;;24.40;55.40;;;;;;5024774;28;20282;-59
2021/06/05 01:28:43;;;;;;;;;;;24.50;55.50;;;;;;5042209;28;19921;-60
2021/06/05 01:31:10;;;;;;;;;;;24.40;55.40;;;;;;5004789;28;19916;-54
2021/06/05 01:33:37;;;;;;;;;;;24.50;55.50;;;;;;5024458;28;19966;-56
2021/06/05 01:36:04;;;;;;;;;;;24.50;55.50;;;;;;5038872;28;19923;-56
2021/06/05 01:38:29;;;;;;;;;;;24.50;55.50;;;;;;5024868;28;19924;-56
2021/06/05 01:40:54;;;;;;;;;;;24.40;55.40;;;;;;5001804;28;20341;-57
2021/06/05 01:43:21;;;;;;;;;;;24.50;55.50;;;;;;5045581;28;19945;-60
2021/06/05 01:45:46;;;;;;;;;;;24.50;55.50;;;;;;5028053;28;20051;-57
2021/06/05 01:48:12;;;;;;;;;;;24.40;55.40;;;;;;5028308;28;19999;-58
2021/06/05 01:50:38;;;;;;;;;;;24.50;55.50;;;;;;5011015;28;20297;-57
2021/06/05 01:53:07;;;;;;;;;;;24.50;55.50;;;;;;5047053;28;19921;-57
2021/06/05 01:55:44;;;;;;;;;;;24.50;55.50;;;;;;5024364;28;19916;-58
2021/06/05 01:58:13;;;;;;;;;;;24.50;55.50;;;;;;5028666;28;19917;-57
2021/06/05 02:00:40;;;;;;;;;;;24.40;55.40;;;;;;5028520;28;20304;-57
2021/06/05 02:03:05;;;;;;;;;;;24.40;55.40;;;;;;5045609;28;20004;-60
2021/06/05 02:05:31;;;;;;;;;;;24.50;55.80;;;;;;5027862;28;19999;-59
2021/06/05 02:07:56;;;;;;;;;;;24.40;55.40;;;;;;5045506;28;20008;-55
2021/06/05 02:10:23;;;;;;;;;;;24.50;55.50;;;;;;5045067;28;19917;-57
2021/06/05 02:12:49;;;;;;;;;;;24.40;55.80;;;;;;5038220;28;19925;-59
2021/06/05 02:15:16;;;;;;;;;;;24.40;55.40;;;;;;5045904;28;19917;-57
2021/06/05 02:17:42;;;;;;;;;;;24.40;55.40;;;;;;5045366;28;20279;-53
2021/06/05 02:20:09;;;;;;;;;;;24.40;55.40;;;;;;5027421;28;19923;-58
2021/06/05 02:22:35;;;;;;;;;;;24.40;55.50;;;;;;5027855;28;20392;-60
2021/06/05 02:25:00;;;;;;;;;;;24.40;55.40;;;;;;5027252;28;19932;-56
2021/06/05 02:27:26;;;;;;;;;;;24.40;55.50;;;;;;5045010;28;20321;-57
2021/06/05 02:29:52;;;;;;;;;;;24.40;55.40;;;;;;5026787;28;20004;-59
2021/06/05 02:32:18;;;;;;;;;;;24.50;55.50;;;;;;5027674;28;19921;-57
2021/06/05 02:34:44;;;;;;;;;;;24.40;55.40;;;;;;5044415;28;19924;-58
2021/06/05 02:37:10;;;;;;;;;;;24.40;55.50;;;;;;5026663;28;20283;-58
2021/06/05 02:39:35;;;;;;;;;;;24.40;55.40;;;;;;5041113;28;19982;-58
2021/06/05 02:42:01;;;;;;;;;;;24.40;56.00;;;;;;5044719;28;19959;-57
2021/06/05 02:44:27;;;;;;;;;;;24.40;55.40;;;;;;5027269;28;19931;-58
2021/06/05 02:46:53;;;;;;;;;;;24.40;55.40;;;;;;5044128;28;20362;-56
2021/06/05 02:49:18;;;;;;;;;;;24.40;55.40;;;;;;5026697;28;19925;-59
2021/06/05 02:51:51;;;;;;;;;;;24.40;55.40;;;;;;5042831;28;19921;-59
2021/06/05 02:54:17;;;;;;;;;;;24.40;55.40;;;;;;5027315;28;19916;-59
2021/06/05 02:56:43;;;;;;;;;;;24.40;55.40;;;;;;5044776;28;19924;-58
2021/06/05 02:59:08;;;;;;;;;;;24.40;55.40;;;;;;5024281;28;19925;-58
2021/06/05 03:01:34;;;;;;;;;;;24.40;55.40;;;;;;5044155;28;19920;-59
2021/06/05 03:04:01;;;;;;;;;;;24.40;55.50;;;;;;5044444;28;20010;-60
2021/06/05 03:06:26;;;;;;;;;;;24.40;55.50;;;;;;5044768;28;20475;-58
2021/06/05 03:08:52;;;;;;;;;;;24.40;55.40;;;;;;5044669;28;19917;-60
2021/06/05 03:11:18;;;;;;;;;;;24.40;55.40;;;;;;5026746;28;20594;-61
2021/06/05 03:13:43;;;;;;;;;;;24.40;55.40;;;;;;5044806;28;19959;-59
2021/06/05 03:16:09;;;;;;;;;;;24.40;55.40;;;;;;5027034;28;19952;-59
2021/06/05 03:18:35;;;;;;;;;;;24.40;55.50;;;;;;5026144;28;20374;-57
2021/06/05 03:21:00;;;;;;;;;;;24.40;56.10;;;;;;5022450;28;20381;-60
2021/06/05 03:23:26;;;;;;;;;;;24.40;55.40;;;;;;5039536;28;19956;-55
2021/06/05 03:25:52;;;;;;;;;;;24.40;55.50;;;;;;5017567;28;20424;-59
2021/06/05 03:28:18;;;;;;;;;;;24.40;55.40;;;;;;5021803;28;20021;-58
2021/06/05 03:30:43;;;;;;;;;;;24.40;55.40;;;;;;5020964;28;19921;-58
2021/06/05 03:33:09;;;;;;;;;;;24.40;55.50;;;;;;5039571;28;20337;-59
2021/06/05 03:35:34;;;;;;;;;;;24.40;55.40;;;;;;5006621;28;20015;-57
2021/06/05 03:38:00;;;;;;;;;;;24.40;55.40;;;;;;5041391;28;19931;-57
2021/06/05 03:40:27;;;;;;;;;;;24.40;55.40;;;;;;5022884;28;19937;-59
2021/06/05 03:42:52;;;;;;;;;;;24.40;55.40;;;;;;5041332;28;19959;-54
2021/06/05 03:45:18;;;;;;;;;;;24.40;55.40;;;;;;5041681;28;19944;-59
2021/06/05 03:47:46;;;;;;;;;;;24.40;55.40;;;;;;5041422;28;19924;-61
2021/06/05 03:50:11;;;;;;;;;;;24.40;55.50;;;;;;5022660;28;19978;-56
2021/06/05 03:52:37;;;;;;;;;;;24.40;55.40;;;;;;5041342;28;19929;-59
2021/06/05 03:55:02;;;;;;;;;;;24.40;55.40;;;;;;5041242;28;19917;-59
2021/06/05 03:57:28;;;;;;;;;;;24.40;55.50;;;;;;5023471;28;20819;-56
2021/06/05 03:59:54;;;;;;;;;;;24.40;55.40;;;;;;5040779;28;19921;-56
2021/06/05 04:02:20;;;;;;;;;;;24.40;55.40;;;;;;5039804;28;20008;-58
2021/06/05 04:04:46;;;;;;;;;;;24.40;55.40;;;;;;5021696;28;20008;-56
2021/06/05 04:07:11;;;;;;;;;;;24.40;55.40;;;;;;5040584;28;19925;-58
2021/06/05 04:09:37;;;;;;;;;;;24.40;55.40;;;;;;5022859;28;20456;-57
2021/06/05 04:12:03;;;;;;;;;;;24.40;55.40;;;;;;5040777;28;20012;-59
2021/06/05 04:14:28;;;;;;;;;;;24.40;55.40;;;;;;5041330;28;19931;-57
2021/06/05 04:16:54;;;;;;;;;;;24.40;55.40;;;;;;5040771;28;20159;-61
2021/06/05 04:19:19;;;;;;;;;;;24.40;55.40;;;;;;5041076;28;19921;-58
2021/06/05 04:21:45;;;;;;;;;;;24.40;55.40;;;;;;5022441;28;19935;-59
2021/06/05 04:24:10;;;;;;;;;;;24.40;55.40;;;;;;5023310;28;19928;-57
2021/06/05 04:26:36;;;;;;;;;;;24.40;55.40;;;;;;5023521;28;19932;-54
2021/06/05 04:29:01;;;;;;;;;;;24.40;55.40;;;;;;5041053;28;19916;-60
2021/06/05 04:31:27;;;;;;;;;;;24.40;55.40;;;;;;5039588;28;20566;-57
2021/06/05 04:33:52;;;;;;;;;;;24.30;55.40;;;;;;5039262;28;19921;-57
2021/06/05 04:36:18;;;;;;;;;;;24.30;55.60;;;;;;5022385;28;20469;-58
2021/06/05 04:38:43;;;;;;;;;;;24.30;55.40;;;;;;5040437;28;19921;-56
2021/06/05 04:41:09;;;;;;;;;;;24.30;55.40;;;;;;5040510;28;20008;-57
2021/06/05 04:43:35;;;;;;;;;;;24.30;55.40;;;;;;5039586;28;20290;-58
2021/06/05 04:46:00;;;;;;;;;;;24.40;55.40;;;;;;5040399;28;19931;-55
2021/06/05 04:48:26;;;;;;;;;;;24.30;55.40;;;;;;5039844;28;19924;-57
2021/06/05 04:50:52;;;;;;;;;;;24.30;55.40;;;;;;5017347;28;19959;-56
2021/06/05 04:53:17;;;;;;;;;;;24.40;56.00;;;;;;5039779;28;19916;-57
2021/06/05 04:55:43;;;;;;;;;;;24.30;55.30;;;;;;5040050;28;20523;-58
2021/06/05 04:58:08;;;;;;;;;;;24.40;55.30;;;;;;5040438;28;19967;-57
2021/06/05 05:00:35;;;;;;;;;;;24.30;55.30;;;;;;5038632;28;19975;-56
2021/06/05 05:03:01;;;;;;;;;;;24.30;55.30;;;;;;5021225;28;19925;-59
2021/06/05 05:05:27;;;;;;;;;;;24.30;55.30;;;;;;5039408;28;19924;-55
2021/06/05 05:07:52;;;;;;;;;;;24.30;55.30;;;;;;5039658;28;19967;-55
2021/06/05 05:10:20;;;;;;;;;;;24.30;55.30;;;;;;5039449;28;19916;-60
2021/06/05 05:12:45;;;;;;;;;;;24.40;55.40;;;;;;5022180;28;19917;-60
2021/06/05 05:15:11;;;;;;;;;;;24.40;55.40;;;;;;5040245;28;20648;-58
2021/06/05 05:17:36;;;;;;;;;;;24.30;55.40;;;;;;5014076;28;19928;-56
2021/06/05 05:20:06;;;;;;;;;;;24.30;55.40;;;;;;5039083;28;19921;-60
2021/06/05 05:22:32;;;;;;;;;;;24.30;55.40;;;;;;5017225;28;19936;-54
2021/06/05 05:24:57;;;;;;;;;;;24.30;55.40;;;;;;5039207;28;20011;-53
2021/06/05 05:27:22;;;;;;;;;;;24.30;55.40;;;;;;5039631;28;19929;-57
2021/06/05 05:29:48;;;;;;;;;;;24.30;55.30;;;;;;5038675;28;19921;-60
2021/06/05 05:32:14;;;;;;;;;;;24.30;55.40;;;;;;5021287;28;19972;-59
2021/06/05 05:34:39;;;;;;;;;;;24.30;55.40;;;;;;5022386;28;19919;-56
2021/06/05 05:37:05;;;;;;;;;;;24.30;55.40;;;;;;5021194;28;19947;-57
2021/06/05 05:39:30;;;;;;;;;;;24.30;55.40;;;;;;5039516;28;19948;-59
2021/06/05 05:41:56;;;;;;;;;;;24.30;55.40;;;;;;5039447;28;19990;-58
2021/06/05 05:44:21;;;;;;;;;;;24.30;55.40;;;;;;5039782;28;19925;-57
2021/06/05 05:46:48;;;;;;;;;;;24.30;55.40;;;;;;5004370;28;20342;-58
2021/06/05 05:49:13;;;;;;;;;;;24.30;55.40;;;;;;5021604;28;19917;-56
2021/06/05 05:51:39;;;;;;;;;;;24.30;55.40;;;;;;5039428;28;19975;-57
2021/06/05 05:54:04;;;;;;;;;;;24.30;55.50;;;;;;5039040;28;20298;-55
2021/06/05 05:56:31;;;;;;;;;;;24.20;55.50;;;;;;5039166;28;19995;-55
2021/06/05 05:58:56;;;;;;;;;;;24.30;55.60;;;;;;5017298;28;19967;-57
2021/06/05 06:01:22;;;;;;;;;;;24.30;55.80;;;;;;5065524;22;20334;-60
2021/06/05 06:03:48;;;;;;;;;;;24.30;55.90;;;;;;5065683;28;19916;-59
2021/06/05 06:06:13;;;;;;;;;;;24.30;56.00;;;;;;5048224;28;19917;-61
2021/06/05 06:08:39;;;;;;;;;;;24.30;56.00;;;;;;5053793;28;19974;-62
2021/06/05 06:11:04;;;;;;;;;;;24.30;55.90;;;;;;5065634;28;20403;-62
2021/06/05 06:13:30;;;;;;;;;;;24.30;56.20;;;;;;5063718;28;19952;-59
2021/06/05 06:15:55;;;;;;;;;;;24.30;56.70;;;;;;5051928;28;20639;-59
2021/06/05 06:18:20;;;;;;;;;;;24.30;56.90;;;;;;5067957;28;20190;-61
2021/06/05 06:20:50;;;;;;;;;;;24.30;56.90;;;;;;5073752;28;19935;-60
2021/06/05 06:23:17;;;;;;;;;;;24.30;57.00;;;;;;5063818;28;20329;-60
2021/06/05 06:25:43;;;;;;;;;;;24.30;56.90;;;;;;5065141;28;19920;-60
2021/06/05 06:28:10;;;;;;;;;;;24.30;56.90;;;;;;5057759;28;19920;-61
2021/06/05 06:30:35;;;;;;;;;;;24.30;56.50;;;;;;5066810;28;19956;-60
2021/06/05 06:33:02;;;;;;;;;;;24.30;56.90;;;;;;5048773;28;20404;-61
2021/06/05 06:35:28;;;;;;;;;;;24.30;56.90;;;;;;5072419;28;19913;-59
2021/06/05 06:37:53;;;;;;;;;;;24.30;57.00;;;;;;5061840;28;19930;-59
2021/06/05 06:40:20;;;;;;;;;;;24.30;56.90;;;;;;5047578;28;19912;-60
2021/06/05 06:42:45;;;;;;;;;;;24.30;56.90;;;;;;5064736;28;19940;-60
2021/06/05 06:45:11;;;;;;;;;;;24.30;57.00;;;;;;5075626;28;20332;-62
2021/06/05 06:47:37;;;;;;;;;;;24.20;56.90;;;;;;5063065;28;19919;-60
2021/06/05 06:50:04;;;;;;;;;;;24.20;57.00;;;;;;5080551;28;19923;-60
2021/06/05 06:52:29;;;;;;;;;;;24.20;57.00;;;;;;5075914;28;19917;-59
2021/06/05 06:54:55;;;;;;;;;;;24.30;57.10;;;;;;5075825;28;19913;-61
2021/06/05 06:57:21;;;;;;;;;;;24.30;57.10;;;;;;5049037;28;19924;-60
2021/06/05 06:59:46;;;;;;;;;;;24.30;56.80;;;;;;5065100;28;19920;-61
2021/06/05 07:02:12;;;;;;;;;;;24.30;57.20;;;;;;5073764;28;19924;-60
2021/06/05 07:04:37;;;;;;;;;;;24.30;57.20;;;;;;5067107;28;20539;-61
2021/06/05 07:07:03;;;;;;;;;;;24.30;57.10;;;;;;5069192;28;19922;-62
2021/06/05 07:09:31;;;;;;;;;;;24.30;57.10;;;;;;5044411;28;20522;-58
2021/06/05 07:11:56;;;;;;;;;;;24.20;57.10;;;;;;5071139;28;20729;-61
2021/06/05 07:14:22;;;;;;;;;;;24.30;57.50;;;;;;5072517;28;19916;-61
2021/06/05 07:16:47;;;;;;;;;;;24.20;57.70;;;;;;5081743;28;20339;-61
2021/06/05 07:19:13;;;;;;;;;;;24.20;58.40;;;;;;5066742;28;19917;-60
2021/06/05 07:21:38;;;;;;;;;;;24.20;58.50;;;;;;5066665;28;20632;-61
2021/06/05 07:24:04;;;;;;;;;;;24.20;58.50;;;;;;5076403;28;19938;-61
2021/06/05 07:26:29;;;;;;;;;;;24.20;58.40;;;;;;5069765;28;20011;-61
2021/06/05 07:28:57;;;;;;;;;;;24.20;58.50;;;;;;5075192;28;19923;-60
2021/06/05 07:31:24;;;;;;;;;;;24.20;58.70;;;;;;5052015;28;19917;-60
2021/06/05 07:33:50;;;;;;;;;;;24.20;58.70;;;;;;5076549;28;19916;-61
2021/06/05 07:36:19;;;;;;;;;;;24.20;58.70;;;;;;5076559;28;19920;-62
2021/06/05 07:38:45;;;;;;;;;;;24.20;58.80;;;;;;5078621;28;19920;-60
2021/06/05 07:41:10;;;;;;;;;;;24.20;58.70;;;;;;5070577;28;19927;-60
2021/06/05 07:43:36;;;;;;;;;;;24.20;58.90;;;;;;5077949;28;19920;-61
2021/06/05 07:46:03;;;;;;;;;;;24.20;58.90;;;;;;5074130;28;20525;-60
2021/06/05 07:48:31;;;;;;;;;;;24.20;58.90;;;;;;5074895;28;19912;-61
2021/06/05 07:50:56;;;;;;;;;;;24.20;58.80;;;;;;5067617;28;19920;-60
2021/06/05 07:53:22;;;;;;;;;;;24.20;58.70;;;;;;5055546;28;19947;-60
2021/06/05 07:55:47;;;;;;;;;;;24.20;59.00;;;;;;5070688;28;19950;-60
2021/06/05 07:58:13;;;;;;;;;;;24.20;58.90;;;;;;5060936;28;19921;-62
2021/06/05 08:00:39;;;;;;;;;;;24.20;58.80;;;;;;5059103;28;20568;-61
2021/06/05 08:03:04;;;;;;;;;;;24.20;58.90;;;;;;5058582;28;19928;-61
2021/06/05 08:05:30;;;;;;;;;;;24.20;58.90;;;;;;5060292;28;20151;-61
2021/06/05 08:07:55;;;;;;;;;;;24.20;58.70;;;;;;5065136;28;19928;-61
2021/06/05 08:10:21;;;;;;;;;;;24.20;59.00;;;;;;5060962;28;19917;-61
2021/06/05 08:12:47;;;;;;;;;;;24.20;59.10;;;;;;5063664;28;19935;-62
2021/06/05 08:15:13;;;;;;;;;;;24.20;59.10;;;;;;5062068;28;19920;-60
2021/06/05 08:17:39;;;;;;;;;;;24.20;59.20;;;;;;5058245;28;19920;-61
2021/06/05 08:20:05;;;;;;;;;;;24.20;59.20;;;;;;5074939;28;19920;-60
2021/06/05 08:22:31;;;;;;;;;;;24.20;59.30;;;;;;5053962;28;20011;-60
2021/06/05 08:24:56;;;;;;;;;;;24.20;59.60;;;;;;5071788;28;19932;-61
2021/06/05 08:27:21;;;;;;;;;;;24.20;59.70;;;;;;5080204;28;19923;-60
2021/06/05 08:29:47;;;;;;;;;;;24.10;59.70;;;;;;5051684;28;20266;-62
2021/06/05 08:32:12;;;;;;;;;;;24.10;59.40;;;;;;5067379;28;19924;-61
2021/06/05 08:34:38;;;;;;;;;;;24.20;59.50;;;;;;5070776;28;19920;-61
2021/06/05 08:37:03;;;;;;;;;;;24.10;59.40;;;;;;5072538;28;19920;-60
2021/06/05 08:39:29;;;;;;;;;;;24.20;59.60;;;;;;5049923;28;19924;-62
2021/06/05 08:41:58;;;;;;;;;;;24.20;59.50;;;;;;5044473;28;19921;-59
2021/06/05 08:44:36;;;;;;;;;;;24.10;59.40;;;;;;5054963;28;20050;-61
2021/06/05 08:47:11;;;;;;;;;;;24.10;59.70;;;;;;5044057;28;19929;-60
2021/06/05 08:49:37;;;;;;;;;;;24.20;59.60;;;;;;5063541;28;19916;-60
2021/06/05 08:52:06;;;;;;;;;;;24.20;59.70;;;;;;5063124;28;19959;-60
2021/06/05 08:54:31;;;;;;;;;;;24.20;59.50;;;;;;5070350;28;20084;-58
2021/06/05 08:57:07;;;;;;;;;;;24.20;59.30;;;;;;5073797;28;20715;-58
2021/06/05 08:59:33;;;;;;;;;;;24.20;59.50;;;;;;5071446;28;20384;-62
2021/06/05 09:01:58;;;;;;;;;;;24.20;59.60;;;;;;5055941;28;19926;-62
2021/06/05 09:04:24;;;;;;;;;;;24.20;59.40;;;;;;5053994;28;20318;-63
2021/06/05 09:06:52;;;;;;;;;;;24.20;59.20;;;;;;5068660;28;19920;-61
2021/06/05 09:09:20;;;;;;;;;;;24.20;59.20;;;;;;5073409;28;19924;-63
2021/06/05 09:11:46;;;;;;;;;;;24.20;59.10;;;;;;5066439;28;20276;-60
2021/06/05 09:14:11;;;;;;;;;;;24.20;59.00;;;;;;5073048;28;20003;-59
2021/06/05 09:16:38;;;;;;;;;;;24.20;59.20;;;;;;5061364;28;19951;-61
2021/06/05 09:19:06;;;;;;;;;;;24.20;59.10;;;;;;5076944;28;19958;-60
2021/06/05 09:21:32;;;;;;;;;;;24.20;58.90;;;;;;5073565;28;19924;-60
2021/06/05 09:24:09;;;;;;;;;;;24.20;59.00;;;;;;5064488;28;20247;-59
2021/06/05 09:26:35;;;;;;;;;;;24.20;58.90;;;;;;5065741;28;19973;-61
2021/06/05 09:29:08;;;;;;;;;;;24.20;59.30;;;;;;5071745;28;20073;-59
2021/06/05 09:31:33;;;;;;;;;;;24.20;59.30;;;;;;5067486;28;19916;-61
2021/06/05 09:33:58;;;;;;;;;;;24.20;59.20;;;;;;5074568;28;19917;-60
2021/06/05 09:36:31;;;;;;;;;;;24.20;59.20;;;;;;5068099;28;19916;-60
2021/06/05 09:38:58;;;;;;;;;;;24.20;59.50;;;;;;5069390;28;19920;-60
2021/06/05 09:41:24;;;;;;;;;;;24.20;59.40;;;;;;5049627;28;20392;-60
2021/06/05 09:43:51;;;;;;;;;;;24.20;59.40;;;;;;5041680;28;19924;-60
2021/06/05 09:46:19;;;;;;;;;;;24.20;59.40;;;;;;5074286;28;19920;-60
2021/06/05 09:48:45;;;;;;;;;;;24.20;59.30;;;;;;5063114;28;20875;-60
2021/06/05 09:51:23;;;;;;;;;;;24.20;59.20;;;;;;5045346;28;20007;-59
2021/06/05 09:53:55;;;;;;;;;;;24.20;59.10;;;;;;5057368;28;19920;-62
2021/06/05 09:56:26;;;;;;;;;;;24.20;59.00;;;;;;5062242;28;20388;-58
2021/06/05 09:59:00;;;;;;;;;;;24.20;59.40;;;;;;5063573;28;19927;-62
2021/06/05 10:01:26;;;;;;;;;;;24.20;59.30;;;;;;5069236;28;19930;-60
2021/06/05 10:03:56;;;;;;;;;;;24.20;59.30;;;;;;5072097;28;19916;-61
2021/06/05 10:06:38;;;;;;;;;;;24.20;59.20;;;;;;5071145;28;19943;-58
2021/06/05 10:09:17;;;;;;;;;;;24.20;59.00;;;;;;5056468;28;20434;-62
2021/06/05 10:11:43;;;;;;;;;;;24.20;59.00;;;;;;5049132;28;20569;-61
2021/06/05 10:14:15;;;;;;;;;;;24.20;58.90;;;;;;5053353;28;19977;-60
2021/06/05 10:16:42;;;;;;;;;;;24.20;58.80;;;;;;5052617;28;20552;-57
2021/06/05 10:19:19;;;;;;;;;;;24.20;58.80;;;;;;5073800;28;19924;-61
2021/06/05 10:21:45;;;;;;;;;;;24.10;58.70;;;;;;5053211;28;19977;-59
2021/06/05 10:24:10;;;;;;;;;;;24.20;58.80;;;;;;5042067;28;19924;-59
2021/06/05 10:26:40;;;;;;;;;;;24.20;58.80;;;;;;5071420;28;19922;-59
2021/06/05 10:29:24;;;;;;;;;;;24.20;58.70;;;;;;5053976;28;19924;-57
2021/06/05 10:31:50;;;;;;;;;;;24.20;58.70;;;;;;5071830;28;19924;-59
2021/06/05 10:34:21;;;;;;;;;;;24.20;58.70;;;;;;5049966;28;20768;-61
2021/06/05 10:36:47;;;;;;;;;;;24.20;58.70;;;;;;5031734;28;20602;-61
2021/06/05 10:39:29;;;;;;;;;;;24.20;58.70;;;;;;5073877;28;20290;-62
2021/06/05 10:41:58;;;;;;;;;;;24.20;58.70;;;;;;5073841;28;20013;-59
2021/06/05 10:44:24;;;;;;;;;;;24.20;58.70;;;;;;5049662;28;19920;-60
2021/06/05 10:46:49;;;;;;;;;;;24.20;58.70;;;;;;5048284;28;19935;-59
2021/06/05 10:49:33;;;;;;;;;;;24.20;58.60;;;;;;5060513;28;19916;-63
2021/06/05 10:52:03;;;;;;;;;;;24.20;58.60;;;;;;5067494;28;19916;-61
2021/06/05 10:54:29;;;;;;;;;;;24.20;58.70;;;;;;5070720;28;19959;-63
2021/06/05 10:56:57;;;;;;;;;;;24.20;58.60;;;;;;5052459;28;19986;-59
2021/06/05 10:59:37;;;;;;;;;;;24.20;58.70;;;;;;5077334;28;19970;-62
2021/06/05 11:02:03;;;;;;;;;;;24.20;58.80;;;;;;5050607;28;20689;-62
2021/06/05 11:04:31;;;;;;;;;;;24.20;59.00;;;;;;5073460;28;19920;-63
2021/06/05 11:07:03;;;;;;;;;;;24.20;59.60;;;;;;5075806;28;19981;-61
2021/06/05 11:09:29;;;;;;;;;;;24.20;59.00;;;;;;5042939;28;20007;-59
2021/06/05 11:12:13;;;;;;;;;;;24.20;59.20;;;;;;5061564;28;19920;-59
2021/06/05 11:14:43;;;;;;;;;;;24.20;59.30;;;;;;5066392;28;20035;-60
2021/06/05 11:17:11;;;;;;;;;;;24.20;59.40;;;;;;5080271;28;19916;-62
2021/06/05 11:19:41;;;;;;;;;;;24.20;59.60;;;;;;5069466;28;19927;-57
2021/06/05 11:22:07;;;;;;;;;;;24.20;59.70;;;;;;5053740;28;19935;-61
2021/06/05 11:24:33;;;;;;;;;;;24.20;59.90;;;;;;5080061;28;19943;-62
2021/06/05 11:26:59;;;;;;;;;;;24.20;60.00;;;;;;5066043;28;20441;-62
2021/06/05 11:29:27;;;;;;;;;;;24.20;60.20;;;;;;5066226;28;19931;-60
2021/06/05 11:31:56;;;;;;;;;;;24.20;60.20;;;;;;5068605;28;20452;-62
2021/06/05 11:34:28;;;;;;;;;;;24.20;60.20;;;;;;5069019;28;19927;-58
2021/06/05 11:36:53;;;;;;;;;;;24.20;60.40;;;;;;5070068;28;19921;-61
2021/06/05 11:39:21;;;;;;;;;;;24.20;60.50;;;;;;5073899;28;19934;-62
2021/06/05 11:41:48;;;;;;;;;;;24.20;60.60;;;;;;5067851;28;20027;-61
2021/06/05 11:44:18;;;;;;;;;;;24.20;60.80;;;;;;5045112;28;19917;-62
2021/06/05 11:46:45;;;;;;;;;;;24.20;60.80;;;;;;5063008;28;19981;-62
2021/06/05 11:49:11;;;;;;;;;;;24.20;61.10;;;;;;5063109;28;20290;-60
2021/06/05 11:51:43;;;;;;;;;;;24.20;61.30;;;;;;5048558;28;20014;-62
2021/06/05 11:54:13;;;;;;;;;;;24.20;61.90;;;;;;5060191;28;19917;-58
2021/06/05 11:56:47;;;;;;;;;;;24.20;62.50;;;;;;5069362;28;20419;-59
2021/06/05 11:59:31;;;;;;;;;;;24.20;62.80;;;;;;5066700;28;20275;-61
2021/06/05 12:02:06;;;;;;;;;;;24.20;62.70;;;;;;5073948;22;19924;-57
2021/06/05 12:04:35;;;;;;;;;;;24.20;62.60;;;;;;5057821;28;20060;-57
2021/06/05 12:07:00;;;;;;;;;;;24.20;62.70;;;;;;5039852;28;19943;-58
2021/06/05 12:09:26;;;;;;;;;;;24.20;62.40;;;;;;5040232;28;20532;-59
2021/06/05 12:12:00;;;;;;;;;;;24.20;62.30;;;;;;5037792;28;19921;-56
2021/06/05 12:17:08;;;;;;;;;;;24.20;62.10;;;;;;5058897;28;19917;-54
2021/06/05 12:19:34;;;;;;;;;;;24.20;62.00;;;;;;5041171;28;19921;-59
2021/06/05 12:22:16;;;;;;;;;;;24.30;61.90;;;;;;5040389;28;19928;-58
2021/06/05 12:24:43;;;;;;;;;;;24.30;61.60;;;;;;5040532;28;19916;-54
2021/06/05 12:27:09;;;;;;;;;;;24.20;61.40;;;;;;5058903;28;19924;-58
2021/06/05 12:29:38;;;;;;;;;;;24.30;61.60;;;;;;5058623;28;20165;-57
2021/06/05 12:32:22;;;;;;;;;;;24.20;61.40;;;;;;5056023;28;20384;-59
2021/06/05 12:34:47;;;;;;;;;;;24.30;61.40;;;;;;5058934;28;19960;-59
2021/06/05 12:37:19;;;;;;;;;;;24.30;61.30;;;;;;5059866;28;19946;-55
2021/06/05 12:39:45;;;;;;;;;;;24.30;61.20;;;;;;5059267;28;19942;-62
2021/06/05 12:42:12;;;;;;;;;;;24.30;61.10;;;;;;5059261;28;19924;-58
2021/06/05 12:44:39;;;;;;;;;;;24.30;61.00;;;;;;5058834;28;19986;-57
2021/06/05 12:47:11;;;;;;;;;;;24.30;61.00;;;;;;5043694;28;19976;-59
2021/06/05 12:49:36;;;;;;;;;;;24.30;61.00;;;;;;5042639;28;19987;-58
2021/06/05 12:52:03;;;;;;;;;;;24.30;61.00;;;;;;5061816;28;20571;-60
2021/06/05 12:54:49;;;;;;;;;;;24.30;61.00;;;;;;5043656;28;19927;-60
2021/06/05 12:57:25;;;;;;;;;;;24.30;61.00;;;;;;5060182;28;19956;-59
2021/06/05 12:59:50;;;;;;;;;;;24.30;60.90;;;;;;5060853;28;19917;-59
2021/06/05 13:02:19;;;;;;;;;;;24.30;60.80;;;;;;5043264;28;19921;-58
2021/06/05 13:04:45;;;;;;;;;;;24.30;60.80;;;;;;5061706;28;19916;-60
2021/06/05 13:07:10;;;;;;;;;;;24.30;60.80;;;;;;5062312;28;19923;-57
2021/06/05 13:09:37;;;;;;;;;;;24.30;60.80;;;;;;5060482;28;19920;-60
2021/06/05 13:12:03;;;;;;;;;;;24.30;60.80;;;;;;5062044;28;19916;-60
2021/06/05 13:14:30;;;;;;;;;;;24.40;60.80;;;;;;5060982;28;20108;-60
2021/06/05 13:17:05;;;;;;;;;;;24.40;60.80;;;;;;5061638;28;19939;-59
2021/06/05 13:19:31;;;;;;;;;;;24.40;60.70;;;;;;5061122;28;19969;-58
2021/06/05 13:22:03;;;;;;;;;;;24.30;60.60;;;;;;5062238;28;19928;-53
2021/06/05 13:24:29;;;;;;;;;;;24.30;60.50;;;;;;5061189;28;20773;-55
2021/06/05 13:27:14;;;;;;;;;;;24.40;60.50;;;;;;5061169;28;19923;-53
2021/06/05 13:29:45;;;;;;;;;;;24.40;60.50;;;;;;5058570;28;19923;-59
2021/06/05 13:32:10;;;;;;;;;;;24.40;60.40;;;;;;5062052;28;19932;-57
2021/06/05 13:34:38;;;;;;;;;;;24.40;60.30;;;;;;5060549;28;19917;-58
2021/06/05 13:37:19;;;;;;;;;;;24.40;60.30;;;;;;5048626;28;19916;-57
2021/06/05 13:39:45;;;;;;;;;;;24.40;60.20;;;;;;5065487;28;19916;-56
2021/06/05 13:42:10;;;;;;;;;;;24.40;60.20;;;;;;5048595;28;19931;-60
2021/06/05 13:44:38;;;;;;;;;;;24.40;60.10;;;;;;5029729;28;19931;-59
2021/06/05 13:47:04;;;;;;;;;;;24.40;60.10;;;;;;5065374;28;19916;-56
2021/06/05 13:49:29;;;;;;;;;;;24.40;60.00;;;;;;5064452;28;19923;-56
2021/06/05 13:51:55;;;;;;;;;;;24.40;60.00;;;;;;5064844;28;19923;-60
2021/06/05 13:54:20;;;;;;;;;;;24.40;59.90;;;;;;5064844;28;20327;-59
2021/06/05 13:56:45;;;;;;;;;;;24.40;59.90;;;;;;5064748;28;19916;-57
2021/06/05 13:59:11;;;;;;;;;;;24.40;59.90;;;;;;5065008;28;19924;-58
2021/06/05 14:01:36;;;;;;;;;;;24.40;59.90;;;;;;5046414;28;19930;-57
2021/06/05 14:04:02;;;;;;;;;;;24.40;59.90;;;;;;5046997;28;20386;-59
2021/06/05 14:06:28;;;;;;;;;;;24.40;59.80;;;;;;5064491;28;19916;-58
2021/06/05 14:08:53;;;;;;;;;;;24.40;59.80;;;;;;5047139;28;20373;-57
2021/06/05 14:11:19;;;;;;;;;;;24.40;59.70;;;;;;5065126;28;19920;-60
2021/06/05 14:13:45;;;;;;;;;;;24.40;59.70;;;;;;5047487;28;20035;-56
2021/06/05 14:16:10;;;;;;;;;;;24.40;59.60;;;;;;5061207;28;19916;-58
2021/06/05 14:18:36;;;;;;;;;;;24.40;59.60;;;;;;5064308;28;19932;-57
2021/06/05 14:21:02;;;;;;;;;;;24.40;59.60;;;;;;5062175;28;19960;-59